createdAt,value
2019-02-25T09:34:01.072Z,17.17
2019-02-25T09:36:32.319Z,16.02
2019-02-25T09:39:04.424Z,17.42
2019-02-25T09:41:36.003Z,16.42
2019-02-25T09:44:07.205Z,17.02
2019-02-25T09:46:39.387Z,18.70
2019-02-25T09:49:10.751Z,17.37
2019-02-25T09:51:41.943Z,18.80
2019-02-25T09:54:13.243Z,18.52
2019-02-25T09:56:44.421Z,20.02
2019-02-25T09:59:15.636Z,18.65
2019-02-25T10:01:46.805Z,19.05
2019-02-25T10:04:18.195Z,19.95
2019-02-25T10:06:49.400Z,19.95
2019-02-25T10:09:29.485Z,20.68
2019-02-25T10:11:53.578Z,21.35
2019-02-25T10:14:24.798Z,21.85
2019-02-25T10:16:56.020Z,20.72
2019-02-25T10:19:27.311Z,21.50
2019-02-25T10:21:58.510Z,20.85
2019-02-25T10:24:29.737Z,19.90
2019-02-25T10:27:01.002Z,20.80
2019-02-25T10:29:32.332Z,19.85
2019-02-25T10:32:04.872Z,20.25
2019-02-25T10:34:36.575Z,20.30
2019-02-25T10:37:08.958Z,20.82
2019-02-25T10:39:41.285Z,19.90
2019-02-25T10:42:13.647Z,19.80
2019-02-25T10:44:44.919Z,19.80
2019-02-25T10:47:17.817Z,19.70
2019-02-25T10:49:49.012Z,18.52
2019-02-25T10:52:20.212Z,17.90
2019-02-25T10:54:52.447Z,19.10
2019-02-25T10:57:26.607Z,20.02
2019-02-25T10:59:57.325Z,19.20
2019-02-25T11:02:28.537Z,18.17
2019-02-25T11:05:00.348Z,18.80
2019-02-25T11:07:32.833Z,19.65
2019-02-25T11:10:08.249Z,19.60
2019-02-25T11:12:40.522Z,17.90
2019-02-25T11:15:13.834Z,18.05
2019-02-25T11:17:45.850Z,17.95
2019-02-25T11:20:18.293Z,18.20
2019-02-25T11:22:49.491Z,17.87
2019-02-25T11:25:21.527Z,15.75
2019-02-25T11:27:53.613Z,17.65
2019-02-25T11:30:24.859Z,18.50
2019-02-25T11:32:57.842Z,19.27
2019-02-25T11:35:28.952Z,19.90
2019-02-25T11:38:01.682Z,17.52
2019-02-25T11:40:34.101Z,18.62
2019-02-25T11:43:05.870Z,19.35
2019-02-25T11:45:37.060Z,18.23
2019-02-25T11:48:08.245Z,19.67
2019-02-25T11:50:39.442Z,16.87
2019-02-25T11:53:10.626Z,18.75
2019-02-25T11:55:41.832Z,20.02
2019-02-25T11:58:13.054Z,19.00
2019-02-25T12:00:44.256Z,19.73
2019-02-25T12:03:15.439Z,19.30
2019-02-25T12:05:46.721Z,20.32
2019-02-25T12:08:17.949Z,20.05
2019-02-25T12:10:49.166Z,20.00
2019-02-25T12:13:20.359Z,19.10
2019-02-25T12:15:51.563Z,19.40
2019-02-25T12:18:22.741Z,20.10
2019-02-25T12:20:53.931Z,21.17
2019-02-25T12:23:25.109Z,20.85
2019-02-25T12:25:56.355Z,20.55
2019-02-25T12:28:27.571Z,21.97
2019-02-25T12:30:59.810Z,20.27
2019-02-25T12:33:30.994Z,21.65
2019-02-25T12:36:02.188Z,18.90
2019-02-25T12:38:33.385Z,21.80
2019-02-25T12:41:04.691Z,19.60
2019-02-25T12:43:35.821Z,20.40
2019-02-25T12:46:06.989Z,21.75
2019-02-25T12:48:38.207Z,19.87
2019-02-25T12:51:09.472Z,18.85
2019-02-25T12:53:40.653Z,19.87
2019-02-25T12:56:12.873Z,20.00
2019-02-25T12:58:44.104Z,19.67
2019-02-25T13:01:15.353Z,19.50
2019-02-25T13:03:47.585Z,19.10
2019-02-25T13:06:19.799Z,20.27
2019-02-25T13:08:50.980Z,18.87
2019-02-25T13:11:22.217Z,21.37
2019-02-25T13:13:53.578Z,20.10
2019-02-25T13:16:24.751Z,19.37
2019-02-25T13:18:55.923Z,19.62
2019-02-25T13:21:27.140Z,20.37
2019-02-25T13:23:59.432Z,19.02
2019-02-25T13:26:31.667Z,18.75
2019-02-25T13:29:04.246Z,21.17
2019-02-25T13:31:35.458Z,20.25
2019-02-25T13:34:06.670Z,19.15
2019-02-25T13:36:37.969Z,19.07
2019-02-25T13:39:09.148Z,19.42
2019-02-25T13:41:40.571Z,19.42
2019-02-25T13:44:11.771Z,20.10
2019-02-25T13:46:42.993Z,19.12
2019-02-25T13:49:14.243Z,22.05
2019-02-25T13:51:45.464Z,20.35
2019-02-25T13:54:16.688Z,22.25
2019-02-25T13:56:47.999Z,21.48
2019-02-25T13:59:19.360Z,22.27
2019-02-25T14:01:50.668Z,20.92
2019-02-25T14:04:21.977Z,20.90
2019-02-25T14:06:53.952Z,20.62
2019-02-25T14:09:25.115Z,20.12
2019-02-25T14:11:56.448Z,20.30
2019-02-25T14:14:27.704Z,20.40
2019-02-25T14:16:58.921Z,19.37
2019-02-25T14:19:30.133Z,19.37
2019-02-25T14:22:01.382Z,19.15
2019-02-25T14:24:32.776Z,17.80
2019-02-25T14:27:04.072Z,20.37
2019-02-25T14:29:35.304Z,21.45
2019-02-25T14:32:06.746Z,20.60
2019-02-25T14:34:38.591Z,18.73
2019-02-25T14:37:11.017Z,19.77
2019-02-25T14:39:43.292Z,20.32
2019-02-25T14:42:16.533Z,19.62
2019-02-25T14:44:50.015Z,20.85
2019-02-25T14:47:23.407Z,19.77
2019-02-25T14:49:53.468Z,19.27
2019-02-25T14:52:26.715Z,20.08
2019-02-25T14:54:57.750Z,19.92
2019-02-25T14:57:30.738Z,17.37
2019-02-25T15:00:01.923Z,19.42
2019-02-25T15:02:33.244Z,18.42
2019-02-25T15:05:05.666Z,20.75
2019-02-25T15:07:36.890Z,21.42
2019-02-25T15:10:10.997Z,20.88
2019-02-25T15:12:42.402Z,22.10
2019-02-25T15:15:15.611Z,20.02
2019-02-25T15:17:48.226Z,19.55
2019-02-25T15:20:22.819Z,21.27
2019-02-25T15:22:53.960Z,20.48
2019-02-25T15:25:25.154Z,21.10
2019-02-25T15:27:56.361Z,19.80
2019-02-25T15:30:30.768Z,20.97
2019-02-25T15:33:01.595Z,18.17
2019-02-25T15:35:35.134Z,20.23
2019-02-25T15:38:05.876Z,21.00
2019-02-25T15:40:37.125Z,18.67
2019-02-25T15:43:13.242Z,20.32
2019-02-25T15:45:43.761Z,18.35
2019-02-25T15:48:17.534Z,19.30
2019-02-25T15:50:53.038Z,19.25
2019-02-25T15:53:24.268Z,20.00
2019-02-25T15:55:59.243Z,20.20
2019-02-25T15:58:28.452Z,20.37
2019-02-25T16:00:59.758Z,21.20
2019-02-25T16:03:32.200Z,20.37
2019-02-25T16:06:05.797Z,19.73
2019-02-25T16:08:37.266Z,19.25
2019-02-25T16:11:08.592Z,20.15
2019-02-25T16:13:39.823Z,19.15
2019-02-25T16:16:11.013Z,21.70
2019-02-25T16:18:44.033Z,21.77
2019-02-25T16:21:15.350Z,21.68
2019-02-25T16:23:46.607Z,21.80
2019-02-25T16:26:19.598Z,20.05
2019-02-25T16:28:53.183Z,20.70
2019-02-25T16:31:26.522Z,21.55
2019-02-25T16:33:57.966Z,20.65
2019-02-25T16:36:31.101Z,21.55
2019-02-25T16:39:05.401Z,21.73
2019-02-25T16:41:40.990Z,21.80
2019-02-25T16:44:12.122Z,22.30
2019-02-25T16:46:44.461Z,23.45
2019-02-25T16:49:16.256Z,23.25
2019-02-25T16:51:47.477Z,23.20
2019-02-25T16:54:20.626Z,21.12
2019-02-25T16:56:51.729Z,23.25
2019-02-25T16:59:24.944Z,21.95
2019-02-25T17:01:58.065Z,23.92
2019-02-25T17:04:31.833Z,23.18
2019-02-25T17:07:03.108Z,23.35
2019-02-25T17:09:37.055Z,22.07
2019-02-25T17:12:08.888Z,23.18
2019-02-25T17:14:40.959Z,22.90
2019-02-25T17:17:13.241Z,23.15
2019-02-25T17:19:44.481Z,22.58
2019-02-25T17:22:15.668Z,21.75
2019-02-25T17:24:46.925Z,23.85
2019-02-25T17:27:18.167Z,22.32
2019-02-25T17:29:50.850Z,23.05
2019-02-25T17:32:25.366Z,23.70
2019-02-25T17:34:58.255Z,22.87
2019-02-25T17:37:31.352Z,22.25
2019-02-25T17:40:04.410Z,22.22
2019-02-25T17:42:35.348Z,22.07
2019-02-25T17:45:10.068Z,22.45
2019-02-25T17:47:41.922Z,24.30
2019-02-25T17:50:16.687Z,22.02
2019-02-25T17:52:47.943Z,22.05
2019-02-25T17:55:21.445Z,22.40
2019-02-25T17:57:54.332Z,23.35
2019-02-25T18:00:35.015Z,21.17
2019-02-25T18:03:07.111Z,21.10
2019-02-25T18:05:40.557Z,23.07
2019-02-25T18:08:13.311Z,21.65
2019-02-25T18:10:45.572Z,20.25
2019-02-25T18:13:17.730Z,19.50
2019-02-25T18:15:51.356Z,22.17
2019-02-25T18:18:24.410Z,20.57
2019-02-25T18:20:55.163Z,19.45
2019-02-25T18:23:26.337Z,17.77
2019-02-25T18:25:58.815Z,18.48
2019-02-25T18:28:30.109Z,18.67
2019-02-25T18:31:01.771Z,20.52
2019-02-25T18:33:34.672Z,17.35
2019-02-25T18:36:07.128Z,18.42
2019-02-25T18:38:39.023Z,17.70
2019-02-25T18:41:10.235Z,17.45
2019-02-25T18:43:42.937Z,16.77
2019-02-25T18:46:14.329Z,16.30
2019-02-25T18:48:46.752Z,15.38
2019-02-25T18:51:18.546Z,14.58
2019-02-25T18:53:49.862Z,16.05
2019-02-25T18:56:22.705Z,16.23
2019-02-25T18:59:07.118Z,15.03
2019-02-25T19:01:26.858Z,15.38
2019-02-25T19:03:59.065Z,14.47
2019-02-25T19:06:30.735Z,13.68
2019-02-25T19:09:03.679Z,14.55
2019-02-25T19:11:36.522Z,14.78
2019-02-25T19:14:08.740Z,13.65
2019-02-25T19:16:40.535Z,12.75
2019-02-25T19:19:14.330Z,13.13
2019-02-25T19:21:47.781Z,13.28
2019-02-25T19:24:18.779Z,12.80
2019-02-25T19:26:50.346Z,13.22
2019-02-25T19:29:23.649Z,13.35
2019-02-25T19:31:56.445Z,12.45
2019-02-25T19:34:28.371Z,12.78
2019-02-25T19:37:02.242Z,11.90
2019-02-25T19:39:33.633Z,13.70
2019-02-25T19:42:05.648Z,12.35
2019-02-25T19:44:38.155Z,13.60
2019-02-25T19:47:11.589Z,12.35
2019-02-25T19:49:43.638Z,13.45
2019-02-25T19:52:16.806Z,13.60
2019-02-25T19:54:48.879Z,12.43
2019-02-25T19:57:23.232Z,13.60
2019-02-25T19:59:56.159Z,12.50
2019-02-25T20:02:27.698Z,12.90
2019-02-25T20:04:59.703Z,13.13
2019-02-25T20:07:32.944Z,12.55
2019-02-25T20:10:05.418Z,13.53
2019-02-25T20:12:40.103Z,12.65
2019-02-25T20:15:18.292Z,12.60
2019-02-25T20:17:50.669Z,14.05
2019-02-25T20:20:22.328Z,13.53
2019-02-25T20:22:53.525Z,13.50
2019-02-25T20:25:26.588Z,13.30
2019-02-25T20:27:59.834Z,12.63
2019-02-25T20:30:30.692Z,12.33
2019-02-25T20:33:03.845Z,12.50
2019-02-25T20:35:34.770Z,12.10
2019-02-25T20:38:06.005Z,13.18
2019-02-25T20:40:37.162Z,12.93
2019-02-25T20:43:08.358Z,12.78
2019-02-25T20:45:39.823Z,13.13
2019-02-25T20:48:11.099Z,14.07
2019-02-25T20:50:42.288Z,13.43
2019-02-25T20:53:14.482Z,11.97
2019-02-25T20:55:45.633Z,13.50
2019-02-25T20:58:18.628Z,12.35
2019-02-25T21:00:50.909Z,11.90
2019-02-25T21:03:24.879Z,12.88
2019-02-25T21:05:55.896Z,11.55
2019-02-25T21:08:28.177Z,11.57
2019-02-25T21:11:01.531Z,12.43
2019-02-25T21:13:33.559Z,12.40
2019-02-25T21:16:07.487Z,11.85
2019-02-25T21:18:38.113Z,11.85
2019-02-25T21:21:11.296Z,10.82
2019-02-25T21:23:42.204Z,11.53
2019-02-25T21:26:13.383Z,12.07
2019-02-25T21:28:44.571Z,12.00
2019-02-25T21:31:17.363Z,11.30
2019-02-25T21:33:50.089Z,11.38
2019-02-25T21:36:21.560Z,11.50
2019-02-25T21:38:53.962Z,11.38
2019-02-25T21:41:25.643Z,11.95
2019-02-25T21:43:59.106Z,11.20
2019-02-25T21:46:31.599Z,11.38
2019-02-25T21:49:04.041Z,11.45
2019-02-25T21:51:36.878Z,10.48
2019-02-25T21:54:08.994Z,10.85
2019-02-25T21:56:40.184Z,12.25
2019-02-25T21:59:13.163Z,9.60
2019-02-25T22:01:45.248Z,10.75
2019-02-25T22:04:18.582Z,10.72
2019-02-25T22:06:51.276Z,10.05
2019-02-25T22:09:36.061Z,10.08
2019-02-25T22:11:56.297Z,10.63
2019-02-25T22:14:27.594Z,10.48
2019-02-25T22:16:59.396Z,9.05
2019-02-25T22:19:32.468Z,10.13
2019-02-25T22:22:05.308Z,9.25
2019-02-25T22:24:38.883Z,9.58
2019-02-25T22:27:11.833Z,9.88
2019-02-25T22:29:43.539Z,10.75
2019-02-25T22:32:15.805Z,9.90
2019-02-25T22:34:46.913Z,10.18
2019-02-25T22:37:19.927Z,9.85
2019-02-25T22:39:52.619Z,9.88
2019-02-25T22:42:25.263Z,9.83
2019-02-25T22:44:56.440Z,9.15
2019-02-25T22:47:27.517Z,9.98
2019-02-25T22:49:58.625Z,9.58
2019-02-25T22:52:31.504Z,9.80
2019-02-25T22:55:05.918Z,9.30
2019-02-25T22:57:35.212Z,8.73
2019-02-25T23:00:30.161Z,9.25
2019-02-25T23:03:03.047Z,9.65
2019-02-25T23:05:34.243Z,8.70
2019-02-25T23:08:09.024Z,9.75
2019-02-25T23:10:41.793Z,9.53
2019-02-25T23:13:10.850Z,9.95
2019-02-25T23:15:44.717Z,10.00
2019-02-25T23:18:16.857Z,9.33
2019-02-25T23:20:48.240Z,9.00
2019-02-25T23:23:21.283Z,8.60
2019-02-25T23:25:54.129Z,8.23
2019-02-25T23:28:26.156Z,9.35
2019-02-25T23:30:57.880Z,8.70
2019-02-25T23:33:31.934Z,7.75
2019-02-25T23:36:03.017Z,8.68
2019-02-25T23:38:34.053Z,8.85
2019-02-25T23:41:05.875Z,9.80
2019-02-25T23:43:39.821Z,8.60
2019-02-25T23:46:11.713Z,8.98
2019-02-25T23:48:44.611Z,8.38
2019-02-25T23:51:17.258Z,8.05
2019-02-25T23:53:49.188Z,8.53
2019-02-25T23:56:22.809Z,8.45
2019-02-25T23:58:54.103Z,7.87
